Time;durP1;ratioP1;P1;durP2;ratioP2;P2;SDS_P1;SDS_P2;PMS_P1;PMS_P2;Temp;Humidity;BMP_temperature;BMP_pressure;BME280_temperature;BME280_humidity;BME280_pressure;Samples;Min_cycle;Max_cycle;Signal;HPM_P1;HPM_P2
2023/10/28 00:01:36;;;;;;;13.30;8.67;;;13.70;99.90;;;;;;10507957;28;20402;-65
2023/10/28 00:06:36;;;;;;;12.43;8.10;;;13.70;99.90;;;;;;10502650;28;20409;-64
2023/10/28 00:11:37;;;;;;;12.23;8.23;;;13.70;99.90;;;;;;10504271;28;20959;-65
2023/10/28 00:16:38;;;;;;;14.23;8.47;;;13.70;99.90;;;;;;10494128;28;20512;-65
2023/10/28 00:21:39;;;;;;;14.33;8.50;;;13.70;99.90;;;;;;10504271;28;20410;-65
2023/10/28 00:26:40;;;;;;;13.43;8.20;;;13.70;99.90;;;;;;10503846;28;20409;-64
2023/10/28 00:31:40;;;;;;;13.13;7.83;;;13.70;99.90;;;;;;10504458;28;20471;-65
2023/10/28 00:36:41;;;;;;;12.35;7.88;;;13.70;99.90;;;;;;10502416;28;20401;-64
2023/10/28 00:41:43;;;;;;;13.33;7.93;;;13.70;99.90;;;;;;10505315;28;20408;-65
2023/10/28 00:46:44;;;;;;;12.10;7.75;;;13.60;99.90;;;;;;10502736;28;20959;-65
2023/10/28 00:51:45;;;;;;;12.07;7.97;;;13.60;99.90;;;;;;10503119;28;20417;-64
2023/10/28 00:56:46;;;;;;;13.40;8.07;;;13.60;99.90;;;;;;10511694;28;20591;-65
2023/10/28 01:01:46;;;;;;;12.60;7.97;;;13.60;99.90;;;;;;10506748;28;20472;-65
2023/10/28 01:06:47;;;;;;;11.97;7.60;;;13.60;99.90;;;;;;10499197;28;20396;-64
2023/10/28 01:11:48;;;;;;;12.52;7.32;;;13.60;99.90;;;;;;10502400;28;20426;-65
2023/10/28 01:16:49;;;;;;;12.17;7.60;;;13.80;99.90;;;;;;10504437;28;20404;-64
2023/10/28 01:21:49;;;;;;;11.45;7.57;;;14.10;99.90;;;;;;10500724;28;20409;-65
2023/10/28 01:26:50;;;;;;;12.13;7.47;;;13.60;99.90;;;;;;10474024;28;21204;-65
2023/10/28 01:31:50;;;;;;;11.80;7.23;;;13.60;99.90;;;;;;10495053;28;20906;-65
2023/10/28 01:36:51;;;;;;;11.15;7.43;;;13.60;99.90;;;;;;10492810;28;20407;-65
2023/10/28 01:41:52;;;;;;;11.37;7.37;;;13.70;99.90;;;;;;10504919;28;20417;-65
2023/10/28 01:46:52;;;;;;;10.73;6.78;;;13.50;99.90;;;;;;10507567;28;20407;-65
2023/10/28 01:51:53;;;;;;;11.33;6.70;;;13.50;99.90;;;;;;10500956;28;20418;-65
2023/10/28 01:56:54;;;;;;;10.87;6.77;;;13.50;99.90;;;;;;10500609;28;20403;-65
2023/10/28 02:01:55;;;;;;;9.93;6.65;;;13.50;99.90;;;;;;10493011;28;20608;-64
2023/10/28 02:06:56;;;;;;;9.83;6.40;;;13.50;99.90;;;;;;10480810;28;20401;-64
2023/10/28 02:11:56;;;;;;;14.38;6.40;;;13.50;99.90;;;;;;10506665;28;20419;-65
2023/10/28 02:16:58;;;;;;;9.83;6.20;;;13.80;99.90;;;;;;10500342;28;20875;-64
2023/10/28 02:21:59;;;;;;;9.77;5.90;;;13.50;99.90;;;;;;10487523;28;20492;-64
2023/10/28 02:27:00;;;;;;;9.43;5.97;;;13.40;99.90;;;;;;10495735;28;20399;-65
2023/10/28 02:32:00;;;;;;;9.27;5.97;;;13.40;99.90;;;;;;10501182;28;20837;-65
2023/10/28 02:37:01;;;;;;;9.80;5.70;;;13.40;99.90;;;;;;10481685;28;20955;-65
2023/10/28 02:42:02;;;;;;;9.20;5.60;;;13.40;99.90;;;;;;10484361;28;20900;-64
2023/10/28 02:47:02;;;;;;;7.88;5.30;;;13.40;99.90;;;;;;10491152;28;20402;-65
2023/10/28 02:52:03;;;;;;;9.23;5.37;;;13.40;99.90;;;;;;10488297;28;20796;-64
2023/10/28 02:57:04;;;;;;;7.65;5.20;;;13.40;99.90;;;;;;10489825;28;20447;-64
2023/10/28 03:02:04;;;;;;;8.53;5.37;;;13.40;99.90;;;;;;10493615;28;20509;-64
2023/10/28 03:07:05;;;;;;;9.30;5.40;;;13.40;99.90;;;;;;10481694;28;20780;-65
2023/10/28 03:12:06;;;;;;;8.23;5.13;;;13.40;99.90;;;;;;10487683;28;20778;-65
2023/10/28 03:17:06;;;;;;;8.02;5.05;;;13.40;99.90;;;;;;10476861;28;20402;-65
2023/10/28 03:22:07;;;;;;;10.17;5.70;;;13.40;99.90;;;;;;10493254;28;20416;-65
2023/10/28 03:27:07;;;;;;;7.83;5.20;;;13.40;99.90;;;;;;10489582;28;20401;-65
2023/10/28 03:32:08;;;;;;;7.20;4.80;;;13.40;99.90;;;;;;10486496;28;20426;-65
2023/10/28 03:37:09;;;;;;;7.90;4.83;;;13.40;99.90;;;;;;10497714;28;20737;-65
2023/10/28 03:42:11;;;;;;;7.97;4.53;;;13.30;99.90;;;;;;10489818;28;20428;-65
2023/10/28 03:47:11;;;;;;;8.50;4.80;;;13.40;99.90;;;;;;10502857;28;21277;-65
2023/10/28 03:52:12;;;;;;;6.35;4.22;;;13.40;99.90;;;;;;10497619;28;20414;-64
2023/10/28 03:57:13;;;;;;;8.37;4.33;;;13.40;99.90;;;;;;10504880;28;20432;-64
2023/10/28 04:02:13;;;;;;;7.32;4.38;;;13.40;99.90;;;;;;10498859;28;20905;-64
2023/10/28 04:07:14;;;;;;;8.07;4.40;;;13.30;99.90;;;;;;10493721;28;20439;-65
2023/10/28 04:12:15;;;;;;;8.00;4.57;;;13.40;99.90;;;;;;10495543;28;20435;-64
2023/10/28 04:17:16;;;;;;;6.70;4.60;;;13.40;99.90;;;;;;10497120;28;20390;-64
2023/10/28 04:22:16;;;;;;;7.33;3.93;;;13.40;99.90;;;;;;10499577;28;20413;-64
2023/10/28 04:27:17;;;;;;;8.60;4.60;;;13.40;99.90;;;;;;10491845;28;20410;-65
2023/10/28 04:32:22;;;;;;;7.15;4.22;;;13.40;99.90;;;;;;10475963;28;20418;-64
2023/10/28 04:37:23;;;;;;;8.68;4.40;;;13.40;99.90;;;;;;10500457;28;20928;-64
2023/10/28 04:42:23;;;;;;;7.63;4.47;;;13.40;99.90;;;;;;10496328;28;20411;-65
2023/10/28 04:47:26;;;;;;;7.77;4.63;;;13.40;99.90;;;;;;10499619;28;20410;-65
2023/10/28 04:52:27;;;;;;;8.07;4.37;;;13.40;99.90;;;;;;10491510;28;20411;-64
2023/10/28 04:57:28;;;;;;;6.13;4.35;;;13.50;99.90;;;;;;10504431;28;20407;-64
2023/10/28 05:02:28;;;;;;;7.83;4.37;;;13.40;99.90;;;;;;10510277;28;20422;-64
2023/10/28 05:07:29;;;;;;;6.37;4.20;;;13.40;99.90;;;;;;10493280;28;20410;-65
2023/10/28 05:12:31;;;;;;;7.90;4.50;;;13.40;99.90;;;;;;10498196;28;20824;-64
2023/10/28 05:17:32;;;;;;;6.15;4.07;;;13.40;99.90;;;;;;10495439;28;20403;-65
2023/10/28 05:22:36;;;;;;;8.50;4.80;;;13.40;99.90;;;;;;10498267;28;20403;-65
2023/10/28 05:27:37;;;;;;;7.83;3.90;;;13.40;99.90;;;;;;10498532;28;20407;-64
2023/10/28 05:32:39;;;;;;;5.93;3.85;;;13.40;99.90;;;;;;10495034;28;20415;-64
2023/10/28 05:37:40;;;;;;;6.63;4.20;;;13.40;99.90;;;;;;10489020;28;20418;-65
2023/10/28 05:42:41;;;;;;;6.22;4.10;;;13.40;99.90;;;;;;10499246;28;20401;-64
2023/10/28 05:47:41;;;;;;;8.37;4.10;;;13.40;99.90;;;;;;10501163;28;20786;-65
2023/10/28 05:52:42;;;;;;;8.93;4.00;;;13.40;99.90;;;;;;10503797;28;20796;-65
2023/10/28 05:57:43;;;;;;;6.87;4.07;;;13.40;99.90;;;;;;10499982;28;20572;-64
2023/10/28 06:02:44;;;;;;;7.55;3.88;;;13.40;99.90;;;;;;10480854;28;20816;-64
2023/10/28 06:07:47;;;;;;;6.07;3.80;;;13.40;99.90;;;;;;10488200;28;20407;-65
2023/10/28 06:12:48;;;;;;;7.35;4.05;;;13.40;99.90;;;;;;10494558;28;20459;-64
2023/10/28 06:17:48;;;;;;;5.55;3.60;;;13.40;99.90;;;;;;10489528;28;20402;-64
2023/10/28 06:22:49;;;;;;;7.27;3.70;;;13.40;99.90;;;;;;10492608;28;20506;-65
2023/10/28 06:27:50;;;;;;;7.83;3.90;;;13.40;99.90;;;;;;10497640;28;20456;-64
2023/10/28 06:32:50;;;;;;;4.97;3.47;;;13.40;99.90;;;;;;10481124;28;20426;-64
2023/10/28 06:37:51;;;;;;;4.63;3.43;;;13.40;99.90;;;;;;10493030;28;20407;-64
2023/10/28 06:42:51;;;;;;;5.77;3.50;;;13.40;99.90;;;;;;10489786;28;20427;-64
2023/10/28 06:47:53;;;;;;;5.90;3.67;;;13.40;99.90;;;;;;10505836;28;20573;-64
2023/10/28 06:52:54;;;;;;;6.65;3.65;;;13.40;99.90;;;;;;10503527;28;20409;-64
2023/10/28 06:57:55;;;;;;;5.10;3.13;;;13.40;99.90;;;;;;10493404;28;20419;-64
2023/10/28 07:02:56;;;;;;;4.40;3.03;;;13.40;99.90;;;;;;10499708;28;20401;-64
2023/10/28 07:07:57;;;;;;;4.57;3.00;;;13.40;99.90;;;;;;10492793;28;20507;-64
2023/10/28 07:12:57;;;;;;;5.47;3.10;;;13.40;99.90;;;;;;10505744;28;20411;-64
2023/10/28 07:17:58;;;;;;;4.83;3.20;;;13.40;99.90;;;;;;10505882;28;20413;-65
2023/10/28 07:23:02;;;;;;;6.15;3.45;;;13.40;99.90;;;;;;10501501;28;20421;-66
2023/10/28 07:28:12;;;;;;;4.55;3.00;;;13.40;99.90;;;;;;10499403;28;20411;-66
2023/10/28 07:33:13;;;;;;;5.57;3.30;;;13.40;99.90;;;;;;10488793;28;20815;-66
2023/10/28 07:38:15;;;;;;;4.90;3.05;;;13.40;99.90;;;;;;10496485;28;20495;-66
2023/10/28 07:43:19;;;;;;;3.70;2.83;;;13.40;99.90;;;;;;10500227;28;20408;-66
2023/10/28 07:48:19;;;;;;;4.80;2.73;;;13.40;99.90;;;;;;10504921;28;20444;-66
2023/10/28 07:53:20;;;;;;;4.38;2.70;;;13.40;99.90;;;;;;10500376;28;20432;-66
2023/10/28 07:58:20;;;;;;;5.20;2.80;;;13.40;99.90;;;;;;10509867;28;20486;-66
2023/10/28 08:03:21;;;;;;;5.70;2.67;;;13.40;99.90;;;;;;10504967;28;20409;-66
2023/10/28 08:08:22;;;;;;;6.15;2.63;;;13.40;99.90;;;;;;10503390;28;20423;-65
2023/10/28 08:13:22;;;;;;;4.00;2.50;;;13.40;99.90;;;;;;10510376;28;20835;-64
2023/10/28 08:18:23;;;;;;;4.33;2.77;;;13.40;99.90;;;;;;10514191;28;20463;-65
2023/10/28 08:23:23;;;;;;;4.72;2.55;;;13.50;99.90;;;;;;10505253;28;20401;-65
2023/10/28 08:28:26;;;;;;;4.77;2.40;;;13.40;99.90;;;;;;10519315;28;20409;-65
2023/10/28 08:33:27;;;;;;;5.57;2.40;;;13.50;99.90;;;;;;10508816;28;20418;-64
2023/10/28 08:38:28;;;;;;;6.77;2.50;;;13.60;99.90;;;;;;10508374;28;20906;-64
2023/10/28 08:43:35;;;;;;;4.87;2.40;;;12.50;99.90;;;;;;10507686;28;20440;-66
2023/10/28 08:48:37;;;;;;;3.80;2.40;;;13.50;99.90;;;;;;10491854;28;20774;-64
2023/10/28 08:53:38;;;;;;;4.10;2.30;;;13.50;99.90;;;;;;10499175;28;20443;-65
2023/10/28 08:58:39;;;;;;;3.80;2.30;;;13.50;99.90;;;;;;10498379;28;20402;-66
2023/10/28 09:03:43;;;;;;;5.83;2.67;;;13.50;99.90;;;;;;10495019;28;20417;-67
2023/10/28 09:08:44;;;;;;;4.03;2.58;;;13.60;99.90;;;;;;10495663;28;20445;-67
2023/10/28 09:13:45;;;;;;;5.33;2.40;;;13.60;99.90;;;;;;10497259;28;20782;-67
2023/10/28 09:18:45;;;;;;;4.15;2.38;;;13.60;99.90;;;;;;10489131;28;20386;-67
2023/10/28 09:23:46;;;;;;;4.40;2.33;;;13.60;99.90;;;;;;10495834;28;20408;-67
2023/10/28 09:28:47;;;;;;;4.97;2.40;;;13.70;99.90;;;;;;10502502;28;20392;-67
2023/10/28 09:33:47;;;;;;;5.20;2.13;;;13.70;99.90;;;;;;10495012;28;20917;-65
2023/10/28 09:38:49;;;;;;;4.30;2.20;;;13.70;99.90;;;;;;10492633;28;20419;-67
2023/10/28 09:43:50;;;;;;;4.70;2.20;;;13.70;99.90;;;;;;10500688;28;20406;-68
2023/10/28 09:48:57;;;;;;;4.13;2.40;;;13.70;99.90;;;;;;10492159;28;20472;-66
2023/10/28 09:54:04;;;;;;;4.87;3.00;;;13.70;99.90;;;;;;10499114;28;20415;-67
2023/10/28 09:59:13;;;;;;;3.53;2.20;;;13.70;99.90;;;;;;10498074;28;20429;-67
2023/10/28 10:04:51;;;;;;;4.75;2.03;;;13.80;99.90;;;;;;10490427;28;20420;-66
2023/10/28 10:09:52;;;;;;;4.25;2.20;;;13.80;99.90;;;;;;10491776;28;20421;-67
2023/10/28 10:14:53;;;;;;;3.77;1.90;;;13.80;99.90;;;;;;10493912;28;20409;-66
2023/10/28 10:19:53;;;;;;;4.50;2.10;;;14.20;99.90;;;;;;10492700;28;20495;-66
2023/10/28 10:24:54;;;;;;;4.75;2.35;;;13.90;99.90;;;;;;10498275;28;20416;-66
2023/10/28 10:30:06;;;;;;;4.10;2.10;;;13.90;99.90;;;;;;10502033;28;20481;-66
2023/10/28 10:35:11;;;;;;;3.60;2.10;;;13.90;99.90;;;;;;10494337;28;20407;-66
2023/10/28 10:40:13;;;;;;;3.75;2.17;;;14.00;99.90;;;;;;10497289;28;20943;-66
2023/10/28 10:45:17;;;;;;;4.30;2.30;;;14.00;99.90;;;;;;10499817;28;20432;-64
2023/10/28 10:50:17;;;;;;;4.43;2.38;;;14.00;99.90;;;;;;10510218;28;20444;-64
2023/10/28 10:55:23;;;;;;;5.60;2.03;;;14.00;99.90;;;;;;10500371;28;20492;-65
2023/10/28 11:00:23;;;;;;;4.13;1.90;;;14.00;99.90;;;;;;10505502;28;20406;-63
2023/10/28 11:05:28;;;;;;;4.07;2.00;;;14.00;99.90;;;;;;10502714;28;20474;-67
2023/10/28 11:10:29;;;;;;;4.35;1.90;;;14.00;99.90;;;;;;10504688;28;20518;-68
2023/10/28 11:15:33;;;;;;;4.38;2.00;;;14.00;99.90;;;;;;10500901;28;20466;-67
2023/10/28 11:20:34;;;;;;;3.83;2.03;;;14.00;99.90;;;;;;10500828;28;20419;-67
2023/10/28 11:25:36;;;;;;;2.80;2.00;;;14.10;99.90;;;;;;10505172;28;20411;-67
2023/10/28 11:30:37;;;;;;;3.73;1.63;;;14.00;99.90;;;;;;10512048;28;20453;-67
2023/10/28 11:35:39;;;;;;;5.90;2.05;;;14.10;99.90;;;;;;10507599;28;20428;-66
2023/10/28 11:40:39;;;;;;;4.33;1.97;;;14.10;99.90;;;;;;10501375;28;20485;-66
2023/10/28 11:45:40;;;;;;;3.65;2.00;;;14.10;99.90;;;;;;10502854;28;20486;-66
2023/10/28 11:50:41;;;;;;;6.43;2.43;;;14.20;99.90;;;;;;10507658;28;20437;-67
2023/10/28 11:55:42;;;;;;;5.57;2.30;;;14.20;99.90;;;;;;10511448;28;20390;-65
2023/10/28 12:00:42;;;;;;;4.93;2.10;;;14.20;99.90;;;;;;10505867;28;20397;-64
2023/10/28 12:05:43;;;;;;;5.30;1.73;;;14.50;99.90;;;;;;10508822;28;20488;-64
2023/10/28 12:10:44;;;;;;;3.88;1.85;;;14.30;99.90;;;;;;10502369;28;20497;-65
2023/10/28 12:15:45;;;;;;;4.18;2.00;;;14.30;99.90;;;;;;10504172;28;20450;-64
2023/10/28 12:20:45;;;;;;;3.13;1.90;;;14.60;99.90;;;;;;10501552;28;20397;-64
2023/10/28 12:25:46;;;;;;;3.47;1.80;;;14.30;99.90;;;;;;10501490;28;20488;-65
2023/10/28 12:30:47;;;;;;;3.75;1.80;;;14.90;99.90;;;;;;10506597;28;20498;-63
2023/10/28 12:35:48;;;;;;;3.88;1.65;;;14.40;99.90;;;;;;10506639;28;20433;-64
2023/10/28 12:40:49;;;;;;;5.43;1.63;;;14.40;99.90;;;;;;10496532;28;20433;-64
2023/10/28 12:45:50;;;;;;;4.90;1.98;;;14.40;99.90;;;;;;10502955;28;20413;-64
2023/10/28 12:50:50;;;;;;;3.80;1.90;;;14.70;99.90;;;;;;10504380;28;20613;-64
2023/10/28 12:55:51;;;;;;;4.27;1.73;;;14.50;99.90;;;;;;10485824;28;20417;-68
2023/10/28 13:00:53;;;;;;;4.65;1.85;;;15.00;99.90;;;;;;10480338;28;20503;-65
2023/10/28 13:05:55;;;;;;;3.72;1.80;;;14.50;99.90;;;;;;10486313;28;20500;-64
2023/10/28 13:10:56;;;;;;;4.60;2.00;;;14.50;99.90;;;;;;10484310;28;20992;-64
2023/10/28 13:15:57;;;;;;;5.23;2.00;;;15.10;99.90;;;;;;10487603;28;20402;-64
2023/10/28 13:21:00;;;;;;;4.20;1.93;;;14.50;99.90;;;;;;10480776;28;20390;-64
2023/10/28 13:26:01;;;;;;;3.83;1.85;;;15.00;99.90;;;;;;10492961;28;20396;-63
2023/10/28 13:31:01;;;;;;;6.20;1.90;;;14.70;99.90;;;;;;10484347;28;20422;-64
2023/10/28 13:36:03;;;;;;;4.40;1.90;;;14.60;99.90;;;;;;10491191;28;21026;-65
2023/10/28 13:41:03;;;;;;;2.80;1.65;;;14.60;99.90;;;;;;10492100;28;20401;-66
2023/10/28 13:46:04;;;;;;;3.97;1.80;;;14.50;99.90;;;;;;10492711;28;20409;-66
2023/10/28 13:51:04;;;;;;;3.20;1.60;;;14.60;99.90;;;;;;10495118;28;20410;-66
2023/10/28 13:56:06;;;;;;;4.60;1.70;;;14.50;99.90;;;;;;10494304;28;20396;-65
2023/10/28 14:01:07;;;;;;;2.38;1.60;;;14.50;99.90;;;;;;10490281;28;20401;-66
2023/10/28 14:06:11;;;;;;;4.38;1.73;;;14.80;99.90;;;;;;10490190;28;20453;-66
2023/10/28 14:11:11;;;;;;;3.75;1.80;;;14.50;99.90;;;;;;10492836;28;20463;-65
2023/10/28 14:16:18;;;;;;;2.33;1.60;;;14.50;99.90;;;;;;10486390;28;20490;-65
2023/10/28 14:21:22;;;;;;;4.90;1.60;;;14.50;99.90;;;;;;10492370;28;20799;-66
2023/10/28 14:26:23;;;;;;;3.80;1.50;;;14.50;99.90;;;;;;10487327;28;20456;-66
2023/10/28 14:31:23;;;;;;;2.73;1.70;;;14.50;99.90;;;;;;10487481;28;20843;-66
2023/10/28 14:36:26;;;;;;;3.13;1.70;;;14.50;99.90;;;;;;10488255;28;21487;-66
2023/10/28 14:41:27;;;;;;;3.70;1.60;;;14.50;99.90;;;;;;10491380;28;20402;-66
2023/10/28 14:46:28;;;;;;;5.03;1.90;;;14.50;99.90;;;;;;10491348;28;20515;-65
2023/10/28 14:51:28;;;;;;;4.70;1.63;;;14.50;99.90;;;;;;10501570;28;20407;-65
2023/10/28 14:56:29;;;;;;;3.30;1.60;;;14.50;99.90;;;;;;10494751;28;20737;-66
2023/10/28 15:01:30;;;;;;;4.77;1.80;;;14.50;99.90;;;;;;10496045;28;20812;-65
2023/10/28 15:06:30;;;;;;;3.50;1.52;;;14.50;99.90;;;;;;10494639;28;20919;-66
2023/10/28 15:11:35;;;;;;;4.03;1.80;;;14.60;99.90;;;;;;10488867;28;20422;-66
2023/10/28 15:16:35;;;;;;;5.47;1.85;;;14.50;99.90;;;;;;10489141;28;20397;-66
2023/10/28 15:21:36;;;;;;;4.10;1.80;;;14.50;99.90;;;;;;10484538;28;20406;-66
2023/10/28 15:26:36;;;;;;;5.45;2.00;;;15.70;99.90;;;;;;10494335;28;20430;-67
2023/10/28 15:31:37;;;;;;;3.87;1.60;;;14.90;99.90;;;;;;10498502;28;20666;-67
2023/10/28 15:36:38;;;;;;;4.90;1.70;;;14.50;99.90;;;;;;10493332;28;20422;-66
2023/10/28 15:41:38;;;;;;;5.55;1.80;;;14.50;99.90;;;;;;10496124;28;20997;-65
2023/10/28 15:46:39;;;;;;;4.43;1.80;;;14.50;99.90;;;;;;10496968;28;20444;-65
2023/10/28 15:51:39;;;;;;;7.57;2.30;;;14.50;99.90;;;;;;10499599;28;20405;-65
2023/10/28 15:56:40;;;;;;;4.07;1.90;;;14.50;99.90;;;;;;10507799;28;20757;-66
2023/10/28 16:01:41;;;;;;;5.63;1.90;;;14.60;99.90;;;;;;10492915;28;20412;-65
2023/10/28 16:06:43;;;;;;;2.87;1.50;;;14.70;99.90;;;;;;10506241;28;20406;-66
2023/10/28 16:11:44;;;;;;;4.13;1.80;;;14.50;99.90;;;;;;10493229;28;20405;-66
2023/10/28 16:16:45;;;;;;;4.90;1.90;;;14.50;99.90;;;;;;10499378;28;20416;-66
2023/10/28 16:21:45;;;;;;;5.55;1.73;;;14.50;99.90;;;;;;10499346;28;21012;-66
2023/10/28 16:26:49;;;;;;;3.70;1.90;;;14.50;99.90;;;;;;10504171;28;20957;-66
2023/10/28 16:31:50;;;;;;;4.13;1.70;;;14.50;99.90;;;;;;10493962;28;20833;-66
2023/10/28 16:36:52;;;;;;;5.17;1.77;;;14.50;99.90;;;;;;10488552;28;20481;-65
2023/10/28 16:41:53;;;;;;;5.03;1.80;;;14.70;99.90;;;;;;10507691;28;20386;-66
2023/10/28 16:46:54;;;;;;;4.95;1.88;;;14.50;99.90;;;;;;10501218;28;20402;-66
2023/10/28 16:51:55;;;;;;;4.60;1.90;;;14.40;99.90;;;;;;10497267;28;20482;-67
2023/10/28 16:56:56;;;;;;;6.70;2.22;;;14.40;99.90;;;;;;10483924;28;20473;-67
2023/10/28 17:01:56;;;;;;;6.17;1.90;;;14.40;99.90;;;;;;10486401;28;20761;-66
2023/10/28 17:06:57;;;;;;;5.80;2.03;;;14.40;99.90;;;;;;10496724;28;20429;-66
2023/10/28 17:11:59;;;;;;;6.10;2.40;;;14.40;99.90;;;;;;10491970;28;20415;-65
2023/10/28 17:16:59;;;;;;;7.35;2.47;;;14.40;99.90;;;;;;10494648;28;20479;-66
2023/10/28 17:22:00;;;;;;;6.73;2.50;;;14.40;99.90;;;;;;10497514;28;20423;-66
2023/10/28 17:27:01;;;;;;;7.00;2.50;;;14.40;99.90;;;;;;10491310;28;20407;-66
2023/10/28 17:32:02;;;;;;;8.60;2.63;;;14.40;99.90;;;;;;10494515;28;20506;-66
2023/10/28 17:37:02;;;;;;;9.75;2.60;;;14.40;99.90;;;;;;10503331;28;20406;-64
2023/10/28 17:42:03;;;;;;;6.97;2.40;;;14.40;99.90;;;;;;10500746;28;20468;-69
2023/10/28 17:47:04;;;;;;;7.13;2.30;;;14.40;99.90;;;;;;10484046;28;20404;-65
2023/10/28 17:52:04;;;;;;;5.63;2.33;;;14.40;99.90;;;;;;10485106;28;20415;-65
2023/10/28 17:57:05;;;;;;;8.20;2.40;;;14.40;99.90;;;;;;10488152;28;20460;-65
2023/10/28 18:02:06;;;;;;;6.03;2.57;;;14.40;99.90;;;;;;10468283;28;20413;-66
2023/10/28 18:07:06;;;;;;;7.28;2.30;;;14.40;99.90;;;;;;10492582;28;20592;-66
2023/10/28 18:12:09;;;;;;;6.27;2.23;;;14.30;99.90;;;;;;10492013;28;20416;-66
2023/10/28 18:17:10;;;;;;;5.57;2.10;;;14.30;99.90;;;;;;10488728;28;20396;-66
2023/10/28 18:22:10;;;;;;;6.80;2.50;;;14.30;99.90;;;;;;10484363;28;20401;-66
2023/10/28 18:27:11;;;;;;;6.40;2.27;;;14.30;99.90;;;;;;10493705;28;20769;-66
2023/10/28 18:32:12;;;;;;;6.07;2.40;;;14.30;99.90;;;;;;10501126;28;20411;-66
2023/10/28 18:37:13;;;;;;;6.20;2.10;;;14.30;99.90;;;;;;10477685;28;20506;-65
2023/10/28 18:42:13;;;;;;;6.70;2.33;;;14.20;99.90;;;;;;10496537;28;20415;-66
2023/10/28 18:47:16;;;;;;;5.77;2.23;;;14.20;99.90;;;;;;10490688;28;20411;-66
2023/10/28 18:52:16;;;;;;;6.30;2.17;;;14.20;99.90;;;;;;10501857;28;20404;-66
2023/10/28 18:57:17;;;;;;;5.57;2.17;;;14.20;99.90;;;;;;10487189;28;20398;-65
2023/10/28 19:02:17;;;;;;;7.30;2.50;;;14.20;99.90;;;;;;10487817;28;20393;-66
2023/10/28 19:07:18;;;;;;;6.55;2.30;;;14.20;99.90;;;;;;10489026;28;20401;-66
2023/10/28 19:12:18;;;;;;;4.77;2.10;;;14.20;99.90;;;;;;10492538;28;20501;-66
2023/10/28 19:17:19;;;;;;;4.47;2.40;;;14.20;99.90;;;;;;10489039;28;20778;-66
2023/10/28 19:22:20;;;;;;;7.53;2.67;;;14.20;99.90;;;;;;10498942;28;20916;-66
2023/10/28 19:27:20;;;;;;;5.73;2.70;;;14.20;99.90;;;;;;10489832;28;20465;-66
2023/10/28 19:32:21;;;;;;;4.90;2.45;;;14.10;99.90;;;;;;10493879;28;20913;-66
2023/10/28 19:37:22;;;;;;;7.10;2.60;;;14.10;99.90;;;;;;10483861;28;20797;-66
2023/10/28 19:42:24;;;;;;;6.75;2.72;;;14.10;99.90;;;;;;10485693;28;20411;-66
2023/10/28 19:47:25;;;;;;;6.73;2.67;;;14.10;99.90;;;;;;10494698;28;20403;-66
2023/10/28 19:52:27;;;;;;;7.47;2.63;;;14.10;99.90;;;;;;10500883;28;20411;-66
2023/10/28 19:57:27;;;;;;;5.57;2.57;;;14.20;99.90;;;;;;10494664;28;20403;-66
2023/10/28 20:02:28;;;;;;;5.20;2.20;;;14.10;99.90;;;;;;10493219;28;20471;-66
2023/10/28 20:07:30;;;;;;;7.10;2.63;;;14.10;99.90;;;;;;10493107;28;20419;-66
2023/10/28 20:12:30;;;;;;;5.40;2.40;;;14.10;99.90;;;;;;10492042;28;20406;-66
2023/10/28 20:17:31;;;;;;;6.37;2.23;;;14.10;99.90;;;;;;10494726;28;20395;-67
2023/10/28 20:22:32;;;;;;;5.20;2.40;;;14.10;99.90;;;;;;10500512;28;20405;-66
2023/10/28 20:27:32;;;;;;;3.92;2.03;;;14.00;99.90;;;;;;10492816;28;20410;-66
2023/10/28 20:32:33;;;;;;;5.43;2.37;;;14.00;99.90;;;;;;10492511;28;20875;-66
2023/10/28 20:37:34;;;;;;;5.73;2.10;;;14.00;99.90;;;;;;10491504;28;20500;-66
2023/10/28 20:42:34;;;;;;;4.97;2.00;;;14.00;99.90;;;;;;10492153;28;20607;-66
2023/10/28 20:47:37;;;;;;;6.37;2.30;;;14.00;99.90;;;;;;10493280;28;20419;-66
2023/10/28 20:52:37;;;;;;;5.07;2.10;;;14.00;99.90;;;;;;10495116;28;20411;-66
2023/10/28 20:57:39;;;;;;;4.53;2.00;;;14.00;99.90;;;;;;10495609;28;20449;-66
2023/10/28 21:02:39;;;;;;;4.65;1.98;;;14.00;99.90;;;;;;10493563;28;20832;-66
2023/10/28 21:07:40;;;;;;;4.57;2.03;;;14.00;99.90;;;;;;10496078;28;20517;-66
2023/10/28 21:12:41;;;;;;;3.97;1.90;;;14.00;99.90;;;;;;10497276;28;20425;-66
2023/10/28 21:17:42;;;;;;;3.33;1.95;;;14.00;99.90;;;;;;10496966;28;20451;-66
2023/10/28 21:22:42;;;;;;;4.43;1.80;;;14.00;99.90;;;;;;10490238;28;20454;-66
2023/10/28 21:27:43;;;;;;;5.22;1.80;;;14.00;99.90;;;;;;10485810;28;20402;-66
2023/10/28 21:32:43;;;;;;;3.43;1.80;;;14.00;99.90;;;;;;10494357;28;20782;-66
2023/10/28 21:37:45;;;;;;;3.50;1.90;;;14.10;99.90;;;;;;10485449;28;20767;-66
2023/10/28 21:42:46;;;;;;;3.90;1.93;;;14.00;99.90;;;;;;10493589;28;20398;-66
2023/10/28 21:47:46;;;;;;;3.72;1.80;;;14.00;99.90;;;;;;10477707;28;20488;-65
2023/10/28 21:52:47;;;;;;;4.40;1.93;;;14.00;99.90;;;;;;10489116;28;20464;-66
2023/10/28 21:57:47;;;;;;;3.08;1.77;;;14.00;99.90;;;;;;10494007;28;20415;-65
2023/10/28 22:02:48;;;;;;;3.80;1.80;;;14.00;99.90;;;;;;10499554;28;20394;-66
2023/10/28 22:07:49;;;;;;;3.90;1.83;;;14.10;99.90;;;;;;10493940;28;20397;-66
2023/10/28 22:12:49;;;;;;;3.88;2.00;;;13.90;99.90;;;;;;10489772;28;20410;-67
2023/10/28 22:17:50;;;;;;;3.23;1.77;;;14.00;99.90;;;;;;10490147;28;20930;-66
2023/10/28 22:22:50;;;;;;;5.17;2.10;;;14.00;99.90;;;;;;10485713;28;20441;-66
2023/10/28 22:27:51;;;;;;;2.42;1.85;;;14.00;99.90;;;;;;10484210;28;20389;-66
2023/10/28 22:32:52;;;;;;;3.70;2.20;;;14.00;99.90;;;;;;10492703;28;20402;-65
2023/10/28 22:37:52;;;;;;;2.92;2.08;;;13.90;99.90;;;;;;10494432;28;20395;-65
2023/10/28 22:42:54;;;;;;;3.30;1.90;;;13.90;99.90;;;;;;10488448;28;20408;-65
2023/10/28 22:47:54;;;;;;;4.55;1.90;;;14.00;99.90;;;;;;10495600;28;20882;-65
2023/10/28 22:52:55;;;;;;;3.97;1.90;;;14.00;99.90;;;;;;10496330;28;20410;-65
2023/10/28 22:57:56;;;;;;;2.88;1.98;;;13.90;99.90;;;;;;10496907;28;20407;-65
2023/10/28 23:02:57;;;;;;;3.53;1.70;;;13.90;99.90;;;;;;10498697;28;20402;-65
2023/10/28 23:07:58;;;;;;;3.03;2.30;;;13.90;99.90;;;;;;10498810;28;20404;-65
2023/10/28 23:12:59;;;;;;;2.63;1.90;;;14.40;99.90;;;;;;10502584;28;20406;-65
2023/10/28 23:17:59;;;;;;;3.23;1.90;;;13.90;99.90;;;;;;10495635;28;20468;-65
2023/10/28 23:23:01;;;;;;;3.07;1.80;;;13.90;99.90;;;;;;10480854;28;20448;-65
2023/10/28 23:28:02;;;;;;;2.28;1.80;;;13.90;99.90;;;;;;10486680;28;20837;-66
2023/10/28 23:33:02;;;;;;;2.80;1.77;;;14.00;99.90;;;;;;10487173;28;20516;-66
2023/10/28 23:38:05;;;;;;;3.00;2.13;;;13.90;99.90;;;;;;10490476;28;20402;-66
2023/10/28 23:43:07;;;;;;;2.50;1.80;;;13.90;99.90;;;;;;10488749;28;20395;-65
2023/10/28 23:48:08;;;;;;;2.43;1.70;;;14.20;99.90;;;;;;10493709;28;20910;-65
2023/10/28 23:53:11;;;;;;;2.63;1.80;;;14.00;99.90;;;;;;10486015;28;20457;-65
2023/10/28 23:58:13;;;;;;;2.10;1.67;;;14.00;99.90;;;;;;10486710;28;20406;-65
